.
WxDataArchive / Data Records for 2015-09-21
2015-09-20 September 2015 2015-09-22

Data Records for Monday, 21 September 2015

Time	Temp	Chill	HIndex	Humid	Dewpt	 Wind 	HiWind	WindDir	Rain 	Barom
-----	----	-----	------	-----	-----	------	------	-------	-----	-----
00:00	53.6	53.6	53.6	79	47.2	0	0	---	0.00	30.123 
00:05	53.5	53.5	53.5	80	47.5	0	0	---	0.00	30.123 
00:10	53.3	53.3	53.3	81	47.6	0	0	---	0.00	30.123 
00:15	53.1	53.1	53.1	81	47.4	0	0	---	0.00	30.122 
00:20	52.9	52.9	52.9	82	47.6	0	0	---	0.00	30.122 
00:25	52.8	52.8	52.8	82	47.5	0	0	---	0.00	30.122 
00:30	52.5	52.5	52.5	83	47.5	0	0	---	0.00	30.127 
00:35	52.3	52.3	52.3	83	47.3	0	0	---	0.00	30.127 
00:40	52.2	52.2	52.2	84	47.5	0	0	---	0.00	30.127 
00:45	52.0	52.0	52.0	84	47.3	0	0	---	0.00	30.129 
00:50	51.9	51.9	51.9	84	47.2	0	0	---	0.00	30.129 
00:55	51.7	51.7	51.7	85	47.3	0	0	---	0.00	30.129 
01:00	51.6	51.6	51.6	85	47.2	0	0	---	0.00	30.128 
01:05	51.4	51.4	51.4	85	47.0	0	0	---	0.00	30.128 
01:10	51.3	51.3	51.3	86	47.3	0	0	---	0.00	30.128 
01:15	51.1	51.1	51.1	86	47.1	0	0	---	0.00	30.127 
01:20	51.0	51.0	51.0	87	47.3	0	0	---	0.00	30.127 
01:25	50.8	50.8	50.8	87	47.1	0	0	---	0.00	30.127 
01:30	50.7	50.7	50.7	88	47.3	0	0	---	0.00	30.124 
01:35	50.5	50.5	50.5	88	47.1	0	0	---	0.00	30.124 
01:40	50.5	50.5	50.5	88	47.1	0	0	---	0.00	30.124 
01:45	50.2	50.2	50.2	88	46.8	0	0	---	0.00	30.122 
01:50	50.1	50.1	50.1	88	46.7	0	0	---	0.00	30.122 
01:55	50.1	50.1	50.1	88	46.7	0	0	---	0.00	30.122 
02:00	49.9	49.9	49.9	89	46.8	0	0	---	0.00	30.120 
02:05	49.8	49.8	49.8	89	46.7	0	0	---	0.00	30.120 
02:10	49.8	49.8	49.8	89	46.7	0	0	---	0.00	30.120 
02:15	49.6	49.6	49.6	89	46.5	0	0	---	0.00	30.117 
02:20	49.6	49.6	49.6	89	46.5	0	0	---	0.00	30.117 
02:25	49.5	49.5	49.5	90	46.7	0	0	---	0.00	30.117 
02:30	49.5	49.5	49.5	90	46.7	0	0	---	0.00	30.115 
02:35	49.5	49.5	49.5	90	46.7	0	0	---	0.00	30.115 
02:40	49.5	49.5	49.5	90	46.7	0	0	---	0.00	30.115 
02:45	49.4	49.4	49.4	90	46.6	0	0	---	0.00	30.116 
02:50	49.4	49.4	49.4	90	46.6	0	0	---	0.00	30.116 
02:55	49.2	49.2	49.2	91	46.7	0	0	---	0.00	30.116 
03:00	49.2	49.2	49.2	91	46.7	0	0	---	0.00	30.114 
03:05	49.2	49.2	49.2	91	46.7	0	0	---	0.00	30.114 
03:10	49.1	49.1	49.1	91	46.6	0	0	---	0.00	30.114 
03:15	49.1	49.1	49.1	91	46.6	0	0	---	0.00	30.109 
03:20	49.1	49.1	49.1	91	46.6	0	0	---	0.00	30.109 
03:25	49.1	49.1	49.1	92	46.9	0	0	---	0.00	30.109 
03:30	49.2	49.2	49.2	92	47.0	0	0	---	0.00	30.101 
03:35	49.4	49.4	49.4	92	47.2	0	0	---	0.00	30.101 
03:40	49.5	49.5	49.5	92	47.3	0	0	---	0.00	30.101 
03:45	49.6	49.6	49.6	92	47.4	0	0	---	0.00	30.091 
03:50	49.6	49.6	49.6	92	47.4	0	0	---	0.00	30.091 
03:55	49.6	49.6	49.6	92	47.4	0	0	---	0.00	30.091 
04:00	49.6	49.6	49.6	92	47.4	0	0	---	0.00	30.090 
04:05	49.5	49.5	49.5	92	47.3	0	0	---	0.00	30.090 
04:10	49.4	49.4	49.4	92	47.2	0	0	---	0.00	30.090 
04:15	49.2	49.2	49.2	92	47.0	0	0	---	0.00	30.092 
04:20	49.1	49.1	49.1	92	46.9	0	0	---	0.00	30.092 
04:25	49.1	49.1	49.1	92	46.9	0	0	---	0.00	30.092 
04:30	49.1	49.1	49.1	93	47.2	0	0	---	0.00	30.097 
04:35	49.2	49.2	49.2	93	47.3	0	0	---	0.00	30.097 
04:40	49.2	49.2	49.2	93	47.3	0	0	---	0.00	30.097 
04:45	49.4	49.4	49.4	93	47.5	0	0	---	0.00	30.096 
04:50	49.2	49.2	49.2	93	47.3	0	0	---	0.00	30.096 
04:55	49.1	49.1	49.1	93	47.2	0	0	---	0.00	30.096 
05:00	49.1	49.1	49.1	93	47.2	0	0	---	0.00	30.096 
05:05	48.9	48.9	48.9	93	47.0	0	0	---	0.00	30.096 
05:10	48.9	48.9	48.9	93	47.0	0	0	---	0.00	30.096 
05:15	48.9	48.9	48.9	93	47.0	0	0	---	0.00	30.098 
05:20	48.9	48.9	48.9	93	47.0	0	0	---	0.00	30.098 
05:25	48.9	48.9	48.9	93	47.0	0	0	---	0.00	30.098 
05:30	48.8	48.8	48.8	93	46.9	0	0	---	0.00	30.097 
05:35	48.6	48.6	48.6	93	46.7	0	0	---	0.00	30.097 
05:40	48.5	48.5	48.5	93	46.6	0	0	---	0.00	30.097 
05:45	48.5	48.5	48.5	93	46.6	0	0	---	0.00	30.097 
05:50	48.3	48.3	48.3	93	46.4	0	0	---	0.00	30.097 
05:55	48.3	48.3	48.3	93	46.4	0	0	---	0.00	30.097 
06:00	48.2	48.2	48.2	93	46.3	0	0	---	0.00	30.099 
06:05	48.0	48.0	48.0	93	46.1	0	0	---	0.00	30.099 
06:10	47.9	47.9	47.9	93	46.0	0	0	---	0.00	30.099 
06:15	47.9	47.9	47.9	93	46.0	0	0	---	0.00	30.101 
06:20	47.9	47.9	47.9	94	46.3	0	0	---	0.00	30.101 
06:25	47.9	47.9	47.9	94	46.3	0	0	---	0.00	30.101 
06:30	48.0	48.0	48.0	94	46.4	0	0	---	0.00	30.102 
06:35	48.8	48.8	48.8	95	47.4	0	0	---	0.00	30.102 
06:40	49.5	49.5	49.5	95	48.1	0	0	---	0.00	30.102 
06:45	50.1	50.1	50.1	95	48.7	0	0	---	0.00	30.100 
06:50	50.4	50.4	50.4	94	48.7	0	0	---	0.00	30.100 
06:55	50.5	50.5	50.5	95	49.1	0	0	---	0.00	30.100 
07:00	50.8	50.8	50.8	95	49.4	0	0	---	0.00	30.100 
07:05	51.0	51.0	51.0	94	49.3	0	2	68	0.00	30.100 
07:10	51.0	51.0	51.0	94	49.3	0	3	68	0.00	30.100 
07:15	51.0	51.0	51.0	94	49.3	0	1	68	0.00	30.103 
07:20	51.0	51.0	51.0	94	49.3	0	1	68	0.00	30.103 
07:25	51.0	51.0	51.0	94	49.3	0	1	68	0.00	30.103 
07:30	51.0	51.0	51.0	94	49.3	0	0	---	0.00	30.117 
07:35	50.8	50.8	50.8	94	49.1	0	0	---	0.00	30.117 
07:40	50.8	50.8	50.8	94	49.1	0	0	---	0.00	30.117 
07:45	50.8	50.8	50.8	94	49.1	0	0	---	0.00	30.119 
07:50	50.8	50.8	50.8	94	49.1	0	0	---	0.00	30.119 
07:55	51.0	51.0	51.0	94	49.3	0	0	---	0.00	30.119 
08:00	51.1	51.1	51.1	94	49.4	0	0	---	0.00	30.119 
08:05	51.3	51.3	51.3	94	49.6	0	1	68	0.00	30.119 
08:10	51.6	51.6	51.6	95	50.2	0	1	68	0.00	30.119 
08:15	51.7	51.7	51.7	95	50.3	0	0	---	0.00	30.129 
08:20	51.9	51.9	51.9	94	50.2	0	0	---	0.00	30.129 
08:25	52.0	52.0	52.0	94	50.3	0	0	---	0.00	30.129 
08:30	52.2	52.2	52.2	94	50.5	0	0	---	0.00	30.129 
08:35	52.6	52.6	52.6	95	51.2	0	1	68	0.00	30.129 
08:40	53.1	53.1	53.1	94	51.4	0	1	68	0.00	30.129 
08:45	53.5	53.5	53.5	94	51.8	0	2	68	0.00	30.125 
08:50	53.5	53.5	53.5	93	51.5	0	1	68	0.00	30.125 
08:55	53.6	53.6	53.6	93	51.6	0	1	68	0.00	30.125 
09:00	53.8	53.8	53.8	92	51.5	0	3	68	0.00	30.128 
09:05	54.1	54.1	54.1	92	51.8	0	1	68	0.00	30.128 
09:10	54.4	54.4	54.4	92	52.1	0	1	68	0.00	30.128 
09:15	54.7	54.7	54.7	92	52.4	0	1	68	0.00	30.128 
09:20	55.0	55.0	55.0	91	52.4	0	1	68	0.00	30.128 
09:25	55.1	55.1	55.1	91	52.5	0	1	68	0.00	30.128 
09:30	55.4	55.4	55.4	91	52.8	0	2	68	0.00	30.128 
09:35	55.9	55.9	55.9	90	53.0	0	2	68	0.00	30.128 
09:40	56.2	56.2	56.2	90	53.3	0	2	68	0.00	30.128 
09:45	56.5	56.5	56.5	89	53.3	0	2	68	0.00	30.130 
09:50	56.9	56.9	56.9	87	53.1	0	2	68	0.00	30.130 
09:55	57.2	57.2	57.2	87	53.4	0	2	68	0.00	30.130 
10:00	57.6	57.6	57.6	85	53.1	0	2	68	0.00	30.132 
10:05	58.4	58.4	58.4	83	53.3	0	2	68	0.00	30.132 
10:10	59.0	59.0	59.0	79	52.5	2	5	68	0.00	30.132 
10:15	59.3	59.3	59.3	79	52.8	1	3	68	0.00	30.134 
10:20	59.9	59.9	59.9	79	53.4	1	4	90	0.00	30.134 
10:25	60.5	60.5	60.5	77	53.2	1	3	90	0.00	30.134 
10:30	61.3	61.3	61.3	76	53.7	1	2	90	0.00	30.132 
10:35	62.0	62.0	62.0	74	53.6	1	5	90	0.00	30.132 
10:40	62.4	62.4	62.4	72	53.2	2	5	90	0.00	30.132 
10:45	62.9	62.9	62.9	71	53.3	2	4	90	0.00	30.129 
10:50	63.2	63.2	63.2	71	53.6	1	4	90	0.00	30.129 
10:55	63.7	63.7	63.7	69	53.3	1	4	90	0.00	30.129 
11:00	64.2	64.2	64.2	67	53.0	1	3	68	0.00	30.130 
11:05	64.8	64.8	64.8	68	54.0	0	4	68	0.00	30.130 
11:10	65.5	65.5	65.5	65	53.4	1	4	68	0.00	30.130 
11:15	65.8	65.8	65.8	63	52.8	2	5	90	0.00	30.130 
11:20	66.0	66.0	66.0	61	52.2	2	7	90	0.00	30.130 
11:25	66.4	66.4	66.4	64	53.8	0	4	90	0.00	30.130 
11:30	67.1	67.1	67.1	58	51.8	1	4	90	0.00	30.132 
11:35	67.4	67.4	67.4	55	50.7	1	5	90	0.00	30.132 
11:40	67.6	67.6	67.6	56	51.3	1	5	90	0.00	30.132 
11:45	67.9	67.9	67.9	53	50.1	1	5	90	0.00	30.131 
11:50	68.3	68.3	68.3	53	50.5	2	6	90	0.00	30.131 
11:55	68.6	68.6	68.6	55	51.8	1	5	90	0.00	30.131 
12:00	68.8	68.8	68.8	54	51.5	1	5	90	0.00	30.129 
12:05	69.1	69.1	69.1	51	50.2	2	4	90	0.00	30.129 
12:10	69.1	69.1	69.1	54	51.7	1	6	90	0.00	30.129 
12:15	69.4	69.4	69.4	53	51.5	1	5	90	0.00	30.130 
12:20	69.4	69.4	69.4	49	49.4	2	7	68	0.00	30.130 
12:25	69.4	69.4	69.4	51	50.5	1	6	68	0.00	30.130 
12:30	69.4	69.4	69.4	51	50.5	2	9	68	0.00	30.132 
12:35	69.8	69.8	69.8	52	51.4	1	4	112	0.00	30.132 
12:40	70.1	70.1	70.1	48	49.5	2	7	112	0.00	30.132 
12:45	70.1	70.1	70.1	50	50.6	1	5	112	0.00	30.129 
12:50	70.1	70.1	70.1	50	50.6	2	5	68	0.00	30.129 
12:55	70.3	70.3	70.3	52	51.8	1	3	68	0.00	30.129 
13:00	70.6	70.6	70.6	50	51.0	1	3	68	0.00	30.126 
13:05	70.9	70.9	70.9	51	51.9	1	4	68	0.00	30.126 
13:10	71.1	71.1	71.1	48	50.4	1	4	68	0.00	30.126 
13:15	71.1	71.1	71.1	48	50.4	1	5	68	0.00	30.123 
13:20	70.8	70.8	70.8	49	50.7	1	5	68	0.00	30.123 
13:25	70.8	70.8	70.8	49	50.7	1	4	90	0.00	30.123 
13:30	71.1	71.1	71.1	47	49.8	1	3	90	0.00	30.115 
13:35	71.3	71.3	71.3	49	51.1	1	2	90	0.00	30.115 
13:40	71.3	71.3	71.3	49	51.1	1	5	112	0.00	30.115 
13:45	71.5	71.5	71.5	48	50.8	1	4	112	0.00	30.109 
13:50	71.5	71.5	71.5	50	51.9	1	4	112	0.00	30.109 
13:55	71.6	71.6	71.6	49	51.4	0	3	135	0.00	30.109 
14:00	71.8	71.8	71.8	49	51.6	0	3	135	0.00	30.100 
14:05	71.8	71.8	71.8	46	49.9	2	4	135	0.00	30.100 
14:10	71.6	71.6	71.6	46	49.7	1	4	68	0.00	30.100 
14:15	71.6	71.6	71.6	46	49.7	1	4	90	0.00	30.100 
14:20	71.8	71.8	71.8	49	51.6	0	2	90	0.00	30.100 
14:25	71.8	71.8	71.8	46	49.9	1	5	90	0.00	30.100 
14:30	71.8	71.8	71.8	46	49.9	0	2	90	0.00	30.099 
14:35	72.0	72.0	72.0	50	52.3	1	4	90	0.00	30.099 
14:40	72.3	72.3	72.3	45	49.8	1	4	45	0.00	30.099 
14:45	72.5	72.5	72.5	48	51.7	0	3	68	0.00	30.092 
14:50	72.5	72.5	72.5	46	50.5	1	6	90	0.00	30.092 
14:55	72.5	72.5	72.5	46	50.5	1	3	90	0.00	30.092 
15:00	72.5	72.5	72.5	45	49.9	0	2	90	0.00	30.087 
15:05	72.5	72.5	72.5	43	48.7	0	1	90	0.00	30.087 
15:10	72.7	72.7	72.7	43	48.9	1	3	90	0.00	30.087 
15:15	72.5	72.5	72.5	38	45.4	2	6	90	0.00	30.083 
15:20	72.3	72.3	72.3	40	46.6	1	4	68	0.00	30.083 
15:25	72.3	72.3	72.3	37	44.6	2	7	90	0.00	30.083 
15:30	72.3	72.3	72.3	36	43.8	1	4	112	0.00	30.080 
15:35	72.3	72.3	72.3	37	44.6	1	5	112	0.00	30.080 
15:40	72.3	72.3	72.3	37	44.6	1	3	68	0.00	30.080 
15:45	72.5	72.5	72.5	36	44.0	0	2	68	0.00	30.078 
15:50	72.5	72.5	72.5	33	41.7	2	6	90	0.00	30.078 
15:55	72.3	72.3	72.3	35	43.1	2	6	90	0.00	30.078 
16:00	72.1	72.1	72.1	32	40.6	2	4	90	0.00	30.079 
16:05	72.0	72.0	72.0	33	41.3	0	3	90	0.00	30.079 
16:10	72.0	72.0	72.0	36	43.6	1	4	90	0.00	30.079 
16:15	72.1	72.1	72.1	33	41.4	1	5	112	0.00	30.077 
16:20	72.3	72.3	72.3	35	43.1	1	4	112	0.00	30.077 
16:25	72.3	72.3	72.3	34	42.3	0	2	112	0.00	30.077 
16:30	72.3	72.3	72.3	32	40.8	0	2	112	0.00	30.075 
16:35	72.1	72.1	72.1	32	40.6	0	2	112	0.00	30.075 
16:40	72.3	72.3	72.3	33	41.6	1	5	112	0.00	30.075 
16:45	72.3	72.3	72.3	34	42.3	1	3	90	0.00	30.078 
16:50	72.3	72.3	72.3	30	39.1	0	2	90	0.00	30.078 
16:55	72.1	72.1	72.1	31	39.8	1	5	90	0.00	30.078 
17:00	72.1	72.1	72.1	31	39.8	1	4	90	0.00	30.079 
17:05	72.0	72.0	72.0	33	41.3	1	3	90	0.00	30.079 
17:10	72.1	72.1	72.1	33	41.4	0	2	90	0.00	30.079 
17:15	72.1	72.1	72.1	32	40.6	0	3	90	0.00	30.079 
17:20	72.1	72.1	72.1	33	41.4	1	3	90	0.00	30.079 
17:25	72.1	72.1	72.1	34	42.2	0	3	90	0.00	30.079 
17:30	72.0	72.0	72.0	34	42.1	0	2	90	0.00	30.080 
17:35	72.0	72.0	72.0	35	42.8	0	2	90	0.00	30.080 
17:40	72.0	72.0	72.0	35	42.8	0	2	90	0.00	30.080 
17:45	72.0	72.0	72.0	36	43.6	1	5	90	0.00	30.083 
17:50	72.0	72.0	72.0	37	44.3	0	3	90	0.00	30.083 
17:55	71.8	71.8	71.8	37	44.1	0	1	90	0.00	30.083 
18:00	71.8	71.8	71.8	37	44.1	0	2	90	0.00	30.082 
18:05	71.8	71.8	71.8	39	45.5	0	1	90	0.00	30.082 
18:10	71.8	71.8	71.8	39	45.5	0	2	90	0.00	30.082 
18:15	71.6	71.6	71.6	39	45.3	0	4	90	0.00	30.081 
18:20	71.6	71.6	71.6	41	46.6	1	2	90	0.00	30.081 
18:25	71.5	71.5	71.5	41	46.5	0	1	90	0.00	30.081 
18:30	71.3	71.3	71.3	42	47.0	0	1	90	0.00	30.083 
18:35	71.1	71.1	71.1	43	47.5	0	1	90	0.00	30.083 
18:40	70.9	70.9	70.9	42	46.6	0	1	90	0.00	30.083 
18:45	70.9	70.9	70.9	44	47.9	0	2	90	0.00	30.082 
18:50	70.8	70.8	70.8	46	49.0	0	1	90	0.00	30.082 
18:55	70.6	70.6	70.6	46	48.8	0	2	90	0.00	30.082 
19:00	70.4	70.4	70.4	46	48.6	0	2	90	0.00	30.083 
19:05	70.3	70.3	70.3	48	49.7	0	1	90	0.00	30.083 
19:10	69.9	69.9	69.9	49	49.9	0	1	90	0.00	30.083 
19:15	69.6	69.6	69.6	50	50.1	0	2	90	0.00	30.085 
19:20	69.3	69.3	69.3	51	50.4	0	0	---	0.00	30.085 
19:25	68.9	68.9	68.9	52	50.5	0	0	---	0.00	30.085 
19:30	68.6	68.6	68.6	52	50.3	0	0	---	0.00	30.086 
19:35	68.3	68.3	68.3	53	50.5	0	0	---	0.00	30.086 
19:40	67.8	67.8	67.8	55	51.0	0	0	---	0.00	30.086 
19:45	67.3	67.3	67.3	55	50.6	0	0	---	0.00	30.086 
19:50	66.8	66.8	66.8	54	49.6	0	1	90	0.00	30.086 
19:55	66.3	66.3	66.3	53	48.6	0	1	90	0.00	30.086 
20:00	66.0	66.0	66.0	52	47.9	0	2	90	0.00	30.089 
20:05	65.6	65.6	65.6	50	46.5	0	2	90	0.00	30.089 
20:10	65.5	65.5	65.5	51	46.9	0	2	90	0.00	30.089 
20:15	65.0	65.0	65.0	52	46.9	0	1	90	0.00	30.090 
20:20	64.7	64.7	64.7	51	46.1	0	1	90	0.00	30.090 
20:25	64.2	64.2	64.2	51	45.7	0	1	90	0.00	30.090 
20:30	63.9	63.9	63.9	51	45.4	0	2	90	0.00	30.096 
20:35	63.5	63.5	63.5	51	45.0	0	2	90	0.00	30.096 
20:40	63.2	63.2	63.2	52	45.3	0	1	90	0.00	30.096 
20:45	62.9	62.9	62.9	52	45.0	0	1	90	0.00	30.101 
20:50	62.6	62.6	62.6	52	44.7	0	1	90	0.00	30.101 
20:55	62.3	62.3	62.3	52	44.4	0	1	90	0.00	30.101 
21:00	62.0	62.0	62.0	52	44.2	0	1	90	0.00	30.104 
21:05	61.8	61.8	61.8	52	44.0	0	1	90	0.00	30.104 
21:10	61.5	61.5	61.5	52	43.7	0	1	90	0.00	30.104 
21:15	61.3	61.3	61.3	52	43.5	0	1	90	0.00	30.107 
21:20	61.0	61.0	61.0	52	43.2	0	1	90	0.00	30.107 
21:25	60.9	60.9	60.9	53	43.7	0	1	90	0.00	30.107 
21:30	60.5	60.5	60.5	53	43.3	0	0	---	0.00	30.111 
21:35	60.2	60.2	60.2	53	43.0	0	2	90	0.00	30.111 
21:40	60.1	60.1	60.1	52	42.4	0	1	90	0.00	30.111 
21:45	59.9	59.9	59.9	52	42.2	0	1	90	0.00	30.114 
21:50	59.8	59.8	59.8	51	41.6	0	1	90	0.00	30.114 
21:55	59.6	59.6	59.6	52	42.0	0	2	90	0.00	30.114 
22:00	59.5	59.5	59.5	51	41.4	0	0	---	0.00	30.116 
22:05	59.3	59.3	59.3	51	41.2	0	1	90	0.00	30.116 
22:10	59.2	59.2	59.2	52	41.6	0	0	---	0.00	30.116 
22:15	59.0	59.0	59.0	52	41.4	0	2	90	0.00	30.113 
22:20	58.9	58.9	58.9	53	41.8	0	0	---	0.00	30.113 
22:25	58.6	58.6	58.6	53	41.5	0	0	---	0.00	30.113 
22:30	58.3	58.3	58.3	54	41.7	0	1	90	0.00	30.113 
22:35	58.3	58.3	58.3	53	41.2	0	1	90	0.00	30.113 
22:40	58.1	58.1	58.1	54	41.5	0	1	90	0.00	30.113 
22:45	58.1	58.1	58.1	55	42.0	0	0	---	0.00	30.112 
22:50	57.8	57.8	57.8	56	42.2	0	0	---	0.00	30.112 
22:55	57.5	57.5	57.5	57	42.4	0	0	---	0.00	30.112 
23:00	57.2	57.2	57.2	58	42.6	0	0	---	0.00	30.115 
23:05	56.7	56.7	56.7	58	42.1	0	0	---	0.00	30.115 
23:10	56.3	56.3	56.3	59	42.2	0	0	---	0.00	30.115 
23:15	55.7	55.7	55.7	59	41.6	0	0	---	0.00	30.113 
23:20	55.4	55.4	55.4	60	41.7	0	0	---	0.00	30.113 
23:25	55.1	55.1	55.1	61	41.9	0	0	---	0.00	30.113 
23:30	55.0	55.0	55.0	63	42.6	0	0	---	0.00	30.114 
23:35	54.7	54.7	54.7	64	42.8	0	0	---	0.00	30.114 
23:40	54.4	54.4	54.4	65	42.9	0	0	---	0.00	30.114 
23:45	54.1	54.1	54.1	66	43.0	0	0	---	0.00	30.117 
23:50	53.9	53.9	53.9	66	42.8	0	0	---	0.00	30.117 
23:55	53.8	53.8	53.8	67	43.1	0	0	---	0.00	30.117 

CoCoRaHS
IN-AL-39
A2 Web Hosting
Creative Commons License
GoDaddy
search engine by freefind advanced

loaded 2018-11-15 05:06:27 • last modified 2010-11-18 10:43:29
Privacy PolicyDisclaimer
• wx.awcolley.com is powered by PmWiki v.2002016 •
• all content (unless otherwise noted) © 2018 A W Colley